Time;durP1;ratioP1;P1;durP2;ratioP2;P2;SDS_P1;SDS_P2;PMS_P1;PMS_P2;Temp;Humidity;BMP_temperature;BMP_pressure;BME280_temperature;BME280_humidity;BME280_pressure;Samples;Min_cycle;Max_cycle;Signal;HPM_P1;HPM_P2
2021/09/07 00:02:24;;;;;;;5.93;4.83;;;;;;;22.14;78.16;98161.03;4965056;28;20661;-69
2021/09/07 00:04:51;;;;;;;5.80;4.20;;;;;;;21.92;78.04;98117.53;4971556;28;20231;-69
2021/09/07 00:07:19;;;;;;;5.93;4.40;;;;;;;22.37;77.72;98185.78;4976216;28;20200;-69
2021/09/07 00:09:45;;;;;;;5.83;4.63;;;;;;;21.94;78.27;98118.50;4980938;28;20497;-69
2021/09/07 00:12:12;;;;;;;7.10;4.60;;;;;;;22.38;78.18;98197.78;4982521;28;20623;-68
2021/09/07 00:14:38;;;;;;;7.10;4.73;;;;;;;22.39;78.37;98196.09;4975699;28;20410;-69
2021/09/07 00:17:05;;;;;;;7.80;4.67;;;;;;;22.27;78.02;98181.16;4985107;28;20199;-68
2021/09/07 00:19:32;;;;;;;6.67;4.50;;;;;;;21.58;77.73;98064.22;4963914;28;20287;-68
2021/09/07 00:21:58;;;;;;;6.50;4.27;;;;;;;22.30;77.86;98177.84;4984705;28;20381;-69
2021/09/07 00:24:25;;;;;;;7.17;4.60;;;;;;;21.35;77.99;98024.09;4975321;28;20259;-69
2021/09/07 00:26:52;;;;;;;6.13;4.50;;;;;;;22.27;77.95;98183.72;4976619;28;20321;-69
2021/09/07 00:29:18;;;;;;;7.50;4.57;;;;;;;22.21;78.08;98167.25;4957888;28;20713;-69
2021/09/07 00:31:45;;;;;;;4.70;3.97;;;;;;;21.83;78.20;98093.28;4945468;28;20291;-70
2021/09/07 00:34:11;;;;;;;5.57;4.03;;;;;;;22.31;78.15;98184.69;4978572;28;20199;-67
2021/09/07 00:36:38;;;;;;;6.73;4.40;;;;;;;22.31;78.61;98182.13;4984053;28;20286;-69
2021/09/07 00:39:04;;;;;;;6.53;4.40;;;;;;;22.23;78.23;98175.88;4979777;28;20305;-69
2021/09/07 00:41:31;;;;;;;5.10;4.60;;;;;;;22.31;78.29;98187.25;4957369;28;20290;-70
2021/09/07 00:43:58;;;;;;;7.03;4.70;;;;;;;22.27;78.34;98180.28;4970603;28;20748;-69
2021/09/07 00:46:24;;;;;;;5.53;4.60;;;;;;;22.31;78.47;98190.69;4974477;28;20200;-69
2021/09/07 00:48:51;;;;;;;5.70;4.40;;;;;;;22.30;78.97;98199.19;4957393;28;20663;-68
2021/09/07 00:51:20;;;;;;;4.57;3.87;;;;;;;22.20;78.84;98176.63;4977788;28;20254;-70
2021/09/07 00:53:47;;;;;;;5.47;4.63;;;;;;;22.24;78.50;98177.59;4955517;28;20347;-70
2021/09/07 00:56:14;;;;;;;5.63;4.47;;;;;;;22.32;78.30;98192.44;4978733;28;20262;-68
2021/09/07 00:58:40;;;;;;;5.77;4.43;;;;;;;22.24;78.56;98162.25;4979070;28;20389;-70
2021/09/07 01:01:07;;;;;;;5.03;4.20;;;;;;;22.33;78.41;98185.63;4942682;28;20267;-69
2021/09/07 01:03:35;;;;;;;5.40;4.33;;;;;;;21.27;78.36;98005.06;4963671;28;20867;-69
2021/09/07 01:06:01;;;;;;;5.63;4.20;;;;;;;22.33;78.49;98181.38;4972728;28;20306;-69
2021/09/07 01:08:28;;;;;;;4.93;4.03;;;;;;;22.21;78.53;98151.88;4965745;28;20239;-69
2021/09/07 01:10:55;;;;;;;5.00;3.80;;;;;;;22.34;78.18;98169.44;4944295;28;20239;-69
2021/09/07 01:13:21;;;;;;;5.00;4.37;;;;;;;22.34;78.32;98166.88;4961665;28;20228;-70
2021/09/07 01:15:48;;;;;;;4.80;4.00;;;;;;;22.33;78.51;98162.56;4970393;28;20263;-68
2021/09/07 01:18:15;;;;;;;6.47;4.40;;;;;;;22.34;78.35;98165.19;4980783;28;20645;-69
2021/09/07 01:20:42;;;;;;;6.47;4.40;;;;;;;22.32;78.01;98160.84;4975371;28;20258;-70
2021/09/07 01:23:08;;;;;;;6.57;4.37;;;;;;;22.36;78.31;98165.25;4958538;28;20231;-69
2021/09/07 01:25:35;;;;;;;4.23;3.83;;;;;;;22.34;78.34;98167.75;4974338;28;20791;-70
2021/09/07 01:28:01;;;;;;;4.60;3.93;;;;;;;21.62;78.29;98049.84;4971957;28;20764;-70
2021/09/07 01:30:29;;;;;;;5.20;4.47;;;;;;;21.96;78.22;98108.31;4968123;28;20231;-69
2021/09/07 01:32:56;;;;;;;5.23;4.00;;;;;;;22.10;78.29;98143.81;4967398;28;20211;-70
2021/09/07 01:35:23;;;;;;;5.00;3.90;;;;;;;21.84;78.33;98095.06;4958807;28;20683;-69
2021/09/07 01:37:49;;;;;;;6.10;3.93;;;;;;;22.18;78.42;98151.78;4970675;28;20677;-70
2021/09/07 01:40:16;;;;;;;5.57;4.17;;;;;;;22.18;78.61;98144.09;4959589;28;20659;-69
2021/09/07 01:42:42;;;;;;;5.10;4.10;;;;;;;21.37;78.34;98001.16;4949424;28;20204;-68
2021/09/07 01:45:10;;;;;;;4.47;3.87;;;;;;;22.20;78.05;98152.72;4974393;28;20286;-69
2021/09/07 01:47:40;;;;;;;5.10;4.13;;;;;;;22.29;78.58;98165.84;4970589;28;20582;-69
2021/09/07 01:50:08;;;;;;;4.23;3.83;;;;;;;22.35;78.39;98177.16;4963484;28;20231;-69
2021/09/07 01:52:35;;;;;;;4.37;3.93;;;;;;;21.47;78.41;98019.44;4977901;28;20345;-70
2021/09/07 01:55:01;;;;;;;4.13;3.73;;;;;;;22.24;78.17;98150.31;4969988;28;20791;-69
2021/09/07 01:57:28;;;;;;;4.43;3.67;;;;;;;22.34;78.35;98165.19;4955006;28;20211;-69
2021/09/07 01:59:55;;;;;;;4.90;4.30;;;;;;;22.34;78.26;98166.88;4971949;28;20227;-71
2021/09/07 02:02:21;;;;;;;4.80;3.83;;;;;;;22.31;78.15;98165.09;4965406;28;20208;-70
2021/09/07 02:04:48;;;;;;;4.40;4.00;;;;;;;22.09;78.27;98129.28;4971051;28;20649;-69
2021/09/07 02:07:15;;;;;;;4.33;3.93;;;;;;;22.04;78.34;98120.56;4964646;28;20297;-70
2021/09/07 02:09:42;;;;;;;5.07;4.57;;;;;;;22.18;78.48;98155.22;4946108;28;20293;-69
2021/09/07 02:12:08;;;;;;;5.37;4.30;;;;;;;21.86;78.45;98107.09;4977816;28;20302;-69
2021/09/07 02:14:35;;;;;;;5.30;4.50;;;;;;;22.29;78.46;98170.97;4963609;28;20247;-69
2021/09/07 02:17:02;;;;;;;5.77;4.53;;;;;;;22.24;78.47;98165.69;4982884;28;21028;-68
2021/09/07 02:19:28;;;;;;;4.50;4.10;;;;;;;22.27;78.62;98163.25;4983371;28;20199;-69
2021/09/07 02:21:55;;;;;;;4.73;3.67;;;;;;;22.29;78.54;98169.25;4975949;28;20234;-69
2021/09/07 02:24:22;;;;;;;6.07;4.17;;;;;;;22.30;78.39;98167.59;4972030;28;20693;-69
2021/09/07 02:26:48;;;;;;;6.13;4.57;;;;;;;22.29;78.69;98165.84;4973692;28;20204;-69
2021/09/07 02:29:15;;;;;;;7.87;4.37;;;;;;;22.11;78.70;98142.16;4979422;28;20227;-70
2021/09/07 02:31:41;;;;;;;5.80;4.17;;;;;;;22.31;78.40;98171.88;4960060;28;20239;-69
2021/09/07 02:34:08;;;;;;;3.90;3.60;;;;;;;21.97;78.52;98113.47;4974547;28;20231;-69
2021/09/07 02:36:37;;;;;;;6.87;4.30;;;;;;;22.13;78.64;98143.06;4976930;28;20688;-69
2021/09/07 02:39:03;;;;;;;6.07;4.00;;;;;;;22.31;78.52;98177.00;4977030;28;20246;-69
2021/09/07 02:41:30;;;;;;;5.23;4.10;;;;;;;22.23;78.47;98157.94;4970532;28;20231;-70
2021/09/07 02:43:57;;;;;;;4.60;4.10;;;;;;;21.88;78.49;98097.78;4954939;28;20313;-69
2021/09/07 02:46:25;;;;;;;4.03;3.70;;;;;;;21.53;78.35;98045.25;4979414;28;20701;-69
2021/09/07 02:48:52;;;;;;;4.03;3.63;;;;;;;22.31;78.46;98179.56;4974042;28;20203;-69
2021/09/07 02:51:18;;;;;;;4.30;3.90;;;;;;;22.27;78.52;98170.03;4973969;28;20295;-69
2021/09/07 02:53:45;;;;;;;4.20;3.77;;;;;;;22.32;78.50;98186.44;4978501;28;20286;-70
2021/09/07 02:56:13;;;;;;;4.03;3.63;;;;;;;22.29;78.52;98182.06;4975108;28;20223;-69
2021/09/07 02:58:39;;;;;;;4.33;3.73;;;;;;;22.31;78.54;98180.44;4980419;28;20231;-69
2021/09/07 03:01:06;;;;;;;4.37;3.87;;;;;;;22.32;78.54;98174.50;4972449;28;20634;-69
2021/09/07 03:03:33;;;;;;;4.60;3.90;;;;;;;22.06;78.39;98131.75;4986317;28;20202;-67
2021/09/07 03:06:01;;;;;;;4.20;3.80;;;;;;;;;;4958806;28;20223;-70
2021/09/07 03:08:28;;;;;;;5.00;4.40;;;;;;;22.31;78.49;98171.88;4974485;28;20208;-69
2021/09/07 03:10:55;;;;;;;4.43;3.90;;;;;;;22.18;78.68;98152.66;4972229;28;20241;-68
2021/09/07 03:13:22;;;;;;;5.20;4.37;;;;;;;22.20;78.71;98150.16;4961789;28;20223;-70
2021/09/07 03:15:48;;;;;;;4.50;3.67;;;;;;;21.95;78.04;98103.97;4977887;28;20282;-69
2021/09/07 03:18:15;;;;;;;4.63;3.97;;;;;;;22.17;78.39;98143.22;4980930;28;20498;-69
2021/09/07 03:20:42;;;;;;;4.57;3.90;;;;;;;22.33;78.50;98168.59;4958439;28;20231;-70
2021/09/07 03:23:09;;;;;;;5.50;3.83;;;;;;;22.34;78.41;98170.31;4978374;28;20249;-69
2021/09/07 03:25:35;;;;;;;3.83;3.53;;;;;;;22.33;78.74;98158.34;4988463;28;20281;-69
2021/09/07 03:28:02;;;;;;;4.27;3.87;;;;;;;22.21;78.52;98142.53;4958419;28;20235;-69
2021/09/07 03:30:28;;;;;;;4.80;3.80;;;;;;;22.33;78.58;98155.78;4949959;28;20694;-69
2021/09/07 03:32:55;;;;;;;4.00;3.60;;;;;;;22.30;78.46;98149.66;4972954;28;20651;-69
2021/09/07 03:35:22;;;;;;;4.83;3.90;;;;;;;22.14;78.53;98124.34;4971360;28;20223;-69
2021/09/07 03:37:48;;;;;;;4.10;3.70;;;;;;;21.53;78.05;98035.03;4972222;28;20231;-70
2021/09/07 03:40:15;;;;;;;4.33;3.93;;;;;;;22.31;78.45;98159.06;4975537;28;20326;-69
2021/09/07 03:42:41;;;;;;;4.03;3.63;;;;;;;22.31;78.38;98161.63;4973381;28;20943;-69
2021/09/07 03:45:11;;;;;;;4.63;3.87;;;;;;;22.27;78.38;98147.88;4970603;28;20251;-70
2021/09/07 03:47:39;;;;;;;4.23;3.80;;;;;;;22.29;78.31;98148.78;4971597;28;20204;-69
2021/09/07 03:50:06;;;;;;;4.10;3.70;;;;;;;22.04;78.65;98118.00;4971310;28;20250;-69
2021/09/07 03:52:32;;;;;;;4.60;3.80;;;;;;;22.26;78.48;98150.38;4964724;28;20235;-69
2021/09/07 03:54:59;;;;;;;4.20;3.80;;;;;;;22.18;78.37;98129.63;4969905;28;20309;-68
2021/09/07 03:57:26;;;;;;;4.83;4.03;;;;;;;22.27;78.63;98154.69;4975393;28;20294;-71
2021/09/07 03:59:54;;;;;;;3.90;3.60;;;;;;;21.93;78.64;98086.00;4971681;28;20238;-69
2021/09/07 04:02:20;;;;;;;4.27;3.70;;;;;;;22.15;78.74;98129.50;4970739;28;20270;-70
2021/09/07 04:04:47;;;;;;;4.17;3.80;;;;;;;21.31;78.80;97993.25;4972779;28;20246;-70
2021/09/07 04:07:14;;;;;;;4.10;3.70;;;;;;;22.08;78.79;98113.88;4954770;28;20681;-70
2021/09/07 04:09:40;;;;;;;4.10;3.70;;;;;;;21.98;78.75;98112.66;4969203;28;20298;-69
2021/09/07 04:12:07;;;;;;;3.87;3.57;;;;;;;22.27;78.59;98168.34;4936065;28;20234;-70
2021/09/07 04:14:34;;;;;;;5.10;3.60;;;;;;;22.27;78.82;98153.00;4966063;28;20641;-69
2021/09/07 04:17:02;;;;;;;4.17;3.63;;;;;;;22.23;78.96;98148.56;4975550;28;20338;-69
2021/09/07 04:19:28;;;;;;;3.57;3.27;;;;;;;22.29;78.93;98170.97;4970845;28;20207;-69
2021/09/07 04:21:55;;;;;;;4.33;3.77;;;;;;;22.25;78.62;98156.28;4983326;28;20295;-69
2021/09/07 04:24:22;;;;;;;3.70;3.40;;;;;;;22.29;78.76;98163.28;4981670;28;20313;-69
2021/09/07 04:26:48;;;;;;;4.13;3.70;;;;;;;22.16;78.64;98138.91;4971392;28;20736;-70
2021/09/07 04:29:16;;;;;;;3.80;3.40;;;;;;;22.29;78.65;98161.59;4938121;28;20208;-69
2021/09/07 04:31:43;;;;;;;4.20;3.80;;;;;;;22.28;78.42;98159.84;4975215;28;20231;-69
2021/09/07 04:34:09;;;;;;;4.30;3.53;;;;;;;22.30;78.65;98162.47;4981770;28;20654;-69
2021/09/07 04:36:36;;;;;;;3.83;3.43;;;;;;;22.20;78.34;98142.47;4970762;28;20696;-70
2021/09/07 04:39:03;;;;;;;3.87;3.57;;;;;;;22.31;78.84;98167.66;4969939;28;20561;-70
2021/09/07 04:41:29;;;;;;;3.80;3.50;;;;;;;22.31;78.67;98165.09;4954290;28;20282;-70
2021/09/07 04:43:57;;;;;;;3.97;3.63;;;;;;;22.04;78.71;98125.69;4972049;28;20297;-70
2021/09/07 04:46:23;;;;;;;3.90;3.57;;;;;;;;;;4959497;28;20232;-69
2021/09/07 04:48:54;;;;;;;5.57;3.83;;;;;;;22.03;78.52;98125.63;4973356;28;20210;-70
2021/09/07 04:51:21;;;;;;;4.30;3.90;;;;;;;21.97;78.49;98110.03;4953578;28;20203;-70
2021/09/07 04:53:48;;;;;;;4.20;3.57;;;;;;;21.56;78.68;98044.50;4961837;28;20236;-69
2021/09/07 04:56:15;;;;;;;4.17;3.73;;;;;;;22.20;78.72;98151.00;4985559;28;20246;-69
2021/09/07 04:58:41;;;;;;;4.13;3.60;;;;;;;22.24;78.47;98159.69;4961084;28;20235;-69
2021/09/07 05:01:08;;;;;;;3.63;3.33;;;;;;;21.25;78.33;97996.47;4984701;28;20237;-69
2021/09/07 05:03:35;;;;;;;4.30;3.90;;;;;;;22.33;78.71;98183.94;4977556;28;20728;-68
2021/09/07 05:06:02;;;;;;;3.67;3.37;;;;;;;21.52;78.64;98043.50;4975654;28;20284;-69
2021/09/07 05:08:28;;;;;;;3.83;3.50;;;;;;;22.18;78.55;98154.34;4961060;28;20200;-69
2021/09/07 05:10:55;;;;;;;4.03;3.63;;;;;;;22.17;78.56;98147.50;4965538;28;20266;-69
2021/09/07 05:13:22;;;;;;;3.83;3.53;;;;;;;21.95;78.41;98116.78;4973191;28;20286;-69
2021/09/07 05:15:48;;;;;;;3.97;3.50;;;;;;;22.34;78.60;98174.56;4969913;28;20381;-69
2021/09/07 05:18:15;;;;;;;4.20;3.80;;;;;;;22.33;78.52;98180.50;4970233;28;20250;-69
2021/09/07 05:20:41;;;;;;;3.77;3.47;;;;;;;22.31;78.47;98183.00;4970222;28;20199;-70
2021/09/07 05:23:08;;;;;;;4.03;3.67;;;;;;;22.31;78.77;98188.13;4969570;28;20227;-68
2021/09/07 05:25:34;;;;;;;4.27;3.80;;;;;;;22.32;78.56;98196.69;4965201;28;20716;-66
2021/09/07 05:28:01;;;;;;;4.00;3.60;;;;;;;22.14;78.58;98175.53;4956947;28;20207;-69
2021/09/07 05:30:28;;;;;;;3.67;3.37;;;;;;;22.29;78.40;98194.03;4969536;28;20281;-69
2021/09/07 05:32:55;;;;;;;4.73;4.13;;;;;;;22.28;78.50;98200.81;4979580;28;20298;-69
2021/09/07 05:35:22;;;;;;;4.00;3.60;;;;;;;22.04;78.74;98158.94;5088528;22;20234;-66
2021/09/07 05:37:48;;;;;;;4.20;3.80;;;;;;;20.97;78.28;97970.69;4989016;28;20298;-66
2021/09/07 05:40:15;;;;;;;4.50;4.10;;;;;;;22.21;78.61;98183.50;4996760;28;20238;-66
2021/09/07 05:42:43;;;;;;;4.47;4.07;;;;;;;22.11;78.14;98171.16;4986774;28;20202;-66
2021/09/07 05:45:14;;;;;;;6.90;4.90;;;;;;;21.39;77.82;98051.56;4977768;28;20592;-66
2021/09/07 05:47:41;;;;;;;6.23;4.87;;;;;;;22.29;77.68;98204.28;5004500;28;20209;-66
2021/09/07 05:50:08;;;;;;;6.33;5.57;;;;;;;22.17;77.30;98176.50;5000815;28;20199;-66
2021/09/07 05:52:36;;;;;;;6.50;5.90;;;;;;;21.53;76.79;98073.38;4997313;28;20297;-66
2021/09/07 05:55:03;;;;;;;6.50;5.60;;;;;;;22.29;76.99;98204.28;5000841;28;20226;-66
2021/09/07 05:57:30;;;;;;;6.87;5.50;;;;;;;21.55;77.02;98094.78;5002226;28;20233;-66
2021/09/07 05:59:56;;;;;;;7.77;6.00;;;;;;;22.31;77.03;98210.28;4998807;28;20242;-63
2021/09/07 06:02:23;;;;;;;6.63;5.40;;;;;;;21.69;77.21;98113.22;5002883;28;20665;-66
2021/09/07 06:04:50;;;;;;;7.20;5.30;;;;;;;21.78;77.14;98128.94;5002188;28;20312;-65
2021/09/07 06:07:17;;;;;;;7.60;6.40;;;;;;;22.30;77.06;98212.00;5001692;28;20256;-66
2021/09/07 06:09:44;;;;;;;12.50;7.90;;;;;;;21.44;76.42;98065.38;4995950;28;20202;-65
2021/09/07 06:12:10;;;;;;;12.77;7.80;;;;;;;21.85;75.69;98128.38;5002489;28;20360;-63
2021/09/07 06:14:37;;;;;;;11.13;7.17;;;;;;;22.32;75.80;98209.50;5003823;28;20293;-65
2021/09/07 06:17:06;;;;;;;7.77;6.37;;;;;;;22.29;76.26;98206.81;4996098;28;20202;-65
2021/09/07 06:19:34;;;;;;;7.93;6.50;;;;;;;22.32;76.41;98214.63;5004804;28;20297;-65
2021/09/07 06:22:00;;;;;;;10.13;8.07;;;;;;;22.32;76.41;98205.22;5004672;28;20617;-65
2021/09/07 06:24:27;;;;;;;15.97;10.00;;;;;;;22.33;74.98;98218.91;5003024;28;20290;-65
2021/09/07 06:26:54;;;;;;;11.30;9.17;;;;;;;22.32;74.54;98215.47;5002581;28;20317;-66
2021/09/07 06:29:20;;;;;;;15.90;10.13;;;;;;;22.33;74.52;98212.13;4996784;28;20210;-63
2021/09/07 06:31:47;;;;;;;18.47;9.13;;;;;;;22.32;74.70;98210.34;5004458;28;20301;-64
2021/09/07 06:34:24;;;;;;;18.30;11.00;;;;;;;22.28;73.97;98205.94;5000820;28;20205;-65
2021/09/07 06:36:51;;;;;;;17.37;10.93;;;;;;;22.33;73.33;98216.34;5006632;28;20262;-63
2021/09/07 06:39:18;;;;;;;15.80;10.60;;;;;;;22.33;73.58;98213.78;5008182;28;20222;-65
2021/09/07 06:41:44;;;;;;;15.90;10.03;;;;;;;22.32;73.94;98223.16;5000439;28;20206;-66
2021/09/07 06:44:11;;;;;;;11.73;10.03;;;;;;;22.32;74.28;98220.59;5006703;28;20289;-66
2021/09/07 06:46:38;;;;;;;23.93;10.57;;;;;;;22.32;74.04;98222.31;4997793;28;20249;-66
2021/09/07 06:49:04;;;;;;;15.73;9.73;;;;;;;22.33;74.30;98224.03;5001035;28;20203;-66
2021/09/07 06:51:31;;;;;;;9.33;8.40;;;;;;;22.33;74.59;98230.03;5003031;28;20301;-65
2021/09/07 06:53:58;;;;;;;10.67;9.00;;;;;;;22.32;74.95;98230.84;5003459;28;20301;-65
2021/09/07 06:56:24;;;;;;;13.53;8.43;;;;;;;22.31;75.51;98223.97;5008678;28;20718;-65
2021/09/07 06:58:51;;;;;;;10.43;8.63;;;;;;;22.32;75.09;98224.88;5000230;28;20233;-66
2021/09/07 07:01:17;;;;;;;12.40;8.47;;;;;;;22.30;75.46;98224.81;5007106;28;20276;-65
2021/09/07 07:03:44;;;;;;;10.33;8.17;;;;;;;22.30;75.70;98222.25;5001149;28;20203;-65
2021/09/07 07:06:11;;;;;;;9.23;8.00;;;;;;;22.29;75.57;98227.31;5005202;28;20768;-65
2021/09/07 07:08:38;;;;;;;9.23;7.80;;;;;;;22.28;75.82;98225.53;5002343;28;20230;-65
2021/09/07 07:11:04;;;;;;;10.57;8.30;;;;;;;22.27;75.51;98222.13;5006904;28;20273;-65
2021/09/07 07:13:31;;;;;;;17.47;8.03;;;;;;;22.26;75.71;98229.75;5004553;28;20237;-65
2021/09/07 07:15:57;;;;;;;11.93;8.57;;;;;;;22.26;75.93;98229.75;5000575;28;20233;-65
2021/09/07 07:18:24;;;;;;;10.23;8.33;;;;;;;22.25;76.03;98228.88;5003894;28;20202;-65
2021/09/07 07:20:51;;;;;;;12.43;7.93;;;;;;;22.25;76.09;98228.88;5002805;28;20237;-64
2021/09/07 07:23:17;;;;;;;10.50;7.93;;;;;;;22.25;76.12;98236.56;5004326;28;20338;-65
2021/09/07 07:25:44;;;;;;;11.03;8.03;;;;;;;22.27;76.23;98234.06;5001019;28;20322;-65
2021/09/07 07:28:10;;;;;;;15.73;8.07;;;;;;;22.26;75.96;98230.59;5008110;28;20226;-66
2021/09/07 07:30:37;;;;;;;9.00;7.63;;;;;;;22.27;76.61;98231.50;5002715;28;20299;-65
2021/09/07 07:33:03;;;;;;;8.53;7.63;;;;;;;22.26;77.00;98232.31;5000883;28;20297;-66
2021/09/07 07:35:30;;;;;;;11.40;8.40;;;;;;;22.27;76.58;98234.94;5000222;28;20670;-65
2021/09/07 07:37:56;;;;;;;8.90;8.07;;;;;;;22.27;77.36;98236.63;4999518;28;20699;-65
2021/09/07 07:40:24;;;;;;;8.43;7.57;;;;;;;22.28;76.69;98235.78;5004689;28;20624;-65
2021/09/07 07:42:51;;;;;;;12.50;8.17;;;;;;;22.28;77.13;98231.56;4999860;28;20294;-65
2021/09/07 07:45:17;;;;;;;9.27;7.57;;;;;;;22.28;76.35;98234.13;5006085;28;20321;-64
2021/09/07 07:47:44;;;;;;;8.07;6.97;;;;;;;22.28;76.17;98236.69;5001587;28;20226;-65
2021/09/07 07:50:11;;;;;;;9.27;7.77;;;;;;;22.30;76.74;98239.28;5000904;28;20636;-63
2021/09/07 07:52:37;;;;;;;9.27;7.83;;;;;;;22.30;76.96;98244.41;5001773;28;20337;-65
2021/09/07 07:55:04;;;;;;;8.27;7.37;;;;;;;22.30;76.86;98239.28;5000133;28;20229;-66
2021/09/07 07:57:31;;;;;;;8.03;7.23;;;;;;;22.30;76.97;98242.75;5008258;28;20234;-66
2021/09/07 07:59:57;;;;;;;8.77;7.00;;;;;;;22.31;76.64;98235.91;5003803;28;20234;-65
2021/09/07 08:02:24;;;;;;;8.50;7.53;;;;;;;22.31;76.86;98230.78;4997762;28;20230;-65
2021/09/07 08:04:52;;;;;;;8.80;7.10;;;;;;;22.31;76.71;98233.34;5007768;28;20968;-64
2021/09/07 08:07:19;;;;;;;9.63;8.20;;;;;;;22.31;76.72;98239.34;5005441;28;20213;-65
2021/09/07 08:09:46;;;;;;;9.33;7.13;;;;;;;22.31;76.76;98233.34;5001896;28;20202;-65
2021/09/07 08:12:16;;;;;;;10.10;7.60;;;;;;;22.31;76.83;98229.09;5000580;28;20733;-66
2021/09/07 08:14:46;;;;;;;7.70;6.90;;;;;;;22.32;76.72;98230.00;5005450;28;20280;-66
2021/09/07 08:17:13;;;;;;;7.80;7.03;;;;;;;22.32;76.88;98230.00;4999380;28;20203;-65
2021/09/07 08:19:39;;;;;;;11.07;7.63;;;;;;;22.32;76.89;98235.97;5000533;28;20248;-66
2021/09/07 08:22:06;;;;;;;8.63;7.50;;;;;;;22.32;77.00;98232.56;5003807;28;20226;-64
2021/09/07 08:24:33;;;;;;;8.37;7.37;;;;;;;22.33;76.78;98244.53;5005667;28;20297;-66
2021/09/07 08:27:00;;;;;;;10.20;9.17;;;;;;;22.33;76.76;98241.97;5004492;28;20357;-66
2021/09/07 08:29:26;;;;;;;17.33;11.00;;;;;;;22.33;76.39;98247.97;4999738;28;20730;-66
2021/09/07 08:31:53;;;;;;;11.97;10.77;;;;;;;22.34;75.85;98246.25;5004382;28;20234;-66
2021/09/07 08:34:19;;;;;;;12.60;10.30;;;;;;;22.34;75.84;98251.38;4998989;28;20202;-65
2021/09/07 08:36:46;;;;;;;11.03;9.37;;;;;;;22.33;76.16;98247.97;5000299;28;20273;-64
2021/09/07 08:39:15;;;;;;;12.53;9.53;;;;;;;22.34;76.12;98251.38;5000968;28;20241;-65
2021/09/07 08:41:44;;;;;;;17.87;9.37;;;;;;;22.32;76.07;98246.19;5005296;28;20206;-66
2021/09/07 08:44:10;;;;;;;10.03;8.90;;;;;;;22.31;76.36;98246.16;4997472;28;20326;-64
2021/09/07 08:46:37;;;;;;;12.60;9.23;;;;;;;22.14;76.58;98224.19;5004934;28;20223;-64
2021/09/07 08:49:14;;;;;;;9.90;8.43;;;;;;;22.24;76.60;98246.75;4986044;28;20588;-63
2021/09/07 08:51:41;;;;;;;11.83;8.90;;;;;;;22.28;76.59;98253.72;4997457;28;20632;-65
2021/09/07 08:54:08;;;;;;;10.17;8.00;;;;;;;22.28;76.61;98253.72;5001455;28;20232;-65
2021/09/07 08:56:34;;;;;;;10.30;8.63;;;;;;;22.27;76.48;98252.88;5005103;28;20214;-66
2021/09/07 08:59:01;;;;;;;10.20;8.33;;;;;;;22.27;76.93;98257.97;5006358;28;20202;-66
2021/09/07 09:01:27;;;;;;;8.57;7.77;;;;;;;22.27;76.99;98251.97;5007139;28;20714;-65
2021/09/07 09:03:54;;;;;;;12.93;8.03;;;;;;;22.28;76.86;98258.84;4988864;28;20211;-65
2021/09/07 09:06:25;;;;;;;9.20;7.63;;;;;;;22.27;77.04;98257.97;5001480;28;20229;-66
2021/09/07 09:09:07;;;;;;;8.80;7.90;;;;;;;22.28;77.11;98261.41;4992798;28;20199;-63
2021/09/07 09:11:50;;;;;;;9.63;7.33;;;;;;;22.28;77.19;98266.53;4992014;28;20747;-65
2021/09/07 09:14:36;;;;;;;11.40;7.93;;;;;;;21.30;76.98;98083.56;4997951;28;20695;-66
2021/09/07 09:17:22;;;;;;;10.20;7.17;;;;;;;22.28;75.65;98259.72;4991933;28;20206;-64
2021/09/07 09:19:54;;;;;;;9.67;8.47;;;;;;;22.27;75.75;98252.88;4992289;28;20289;-66
2021/09/07 09:22:21;;;;;;;9.00;7.67;;;;;;;22.28;75.84;98249.47;4996110;28;20947;-63
2021/09/07 09:24:48;;;;;;;8.90;8.00;;;;;;;22.29;76.42;98247.81;4993493;28;20207;-66
2021/09/07 09:27:14;;;;;;;8.20;7.40;;;;;;;22.30;76.19;98242.75;4990553;28;20305;-65
2021/09/07 09:29:41;;;;;;;9.93;7.90;;;;;;;22.30;76.44;98242.75;5008002;28;20979;-66
2021/09/07 09:32:13;;;;;;;10.10;8.33;;;;;;;22.30;76.63;98240.19;4991967;28;20203;-66
2021/09/07 09:34:40;;;;;;;11.37;7.90;;;;;;;22.32;76.66;98237.69;4992206;28;20244;-66
2021/09/07 09:37:16;;;;;;;8.13;7.20;;;;;;;22.32;76.65;98243.66;4993390;28;20862;-64
2021/09/07 09:39:50;;;;;;;8.10;7.30;;;;;;;22.32;76.65;98241.09;5001877;28;20991;-67
2021/09/07 09:42:18;;;;;;;10.27;7.10;;;;;;;22.33;76.54;98247.09;4990018;28;20234;-67
2021/09/07 09:44:45;;;;;;;8.37;7.20;;;;;;;22.33;76.59;98249.66;4992386;28;20299;-67
2021/09/07 09:47:11;;;;;;;8.03;7.23;;;;;;;22.31;76.57;98241.03;4998874;28;20298;-66
2021/09/07 09:49:38;;;;;;;7.73;6.90;;;;;;;22.30;76.78;98237.63;4997006;28;20209;-63
2021/09/07 09:52:06;;;;;;;8.10;7.33;;;;;;;22.30;76.67;98239.28;5003711;28;20295;-66
2021/09/07 09:54:33;;;;;;;8.57;7.20;;;;;;;22.29;76.83;98230.72;5003124;28;20290;-66
2021/09/07 09:57:01;;;;;;;7.83;7.03;;;;;;;22.30;76.86;98231.59;5001223;28;20230;-65
2021/09/07 09:59:28;;;;;;;7.90;7.10;;;;;;;22.29;76.87;98232.44;5004957;28;20661;-67
2021/09/07 10:01:56;;;;;;;8.77;7.20;;;;;;;22.30;77.02;98235.06;5006119;28;20339;-66
2021/09/07 10:04:23;;;;;;;8.17;7.30;;;;;;;22.30;76.89;98234.16;4995545;28;20212;-66
2021/09/07 10:06:51;;;;;;;8.50;7.03;;;;;;;22.31;76.94;98230.78;4999044;28;20329;-65
2021/09/07 10:09:22;;;;;;;7.73;7.00;;;;;;;22.28;76.90;98220.44;5001165;28;20289;-65
2021/09/07 10:12:09;;;;;;;7.73;7.03;;;;;;;22.32;77.12;98227.44;4994532;28;20248;-66
2021/09/07 10:14:38;;;;;;;9.20;6.77;;;;;;;22.32;76.87;98222.31;4999200;28;20244;-66
2021/09/07 10:20:35;;;;;;;8.00;7.20;;;;;;;22.32;77.17;98217.19;4989603;28;20294;-66
2021/09/07 10:23:08;;;;;;;7.73;6.93;;;;;;;22.33;76.95;98221.47;5003036;28;20285;-65
2021/09/07 10:25:58;;;;;;;7.30;6.60;;;;;;;22.33;77.01;98219.81;4994380;28;20265;-66
2021/09/07 10:28:27;;;;;;;9.73;6.43;;;;;;;22.33;77.03;98216.34;4998416;28;21024;-66
2021/09/07 10:31:18;;;;;;;8.10;6.73;;;;;;;22.34;77.07;98221.53;5001813;28;20206;-66
2021/09/07 10:33:51;;;;;;;7.30;6.60;;;;;;;22.34;77.02;98220.66;5001855;28;20213;-66
2021/09/07 10:36:22;;;;;;;8.17;7.27;;;;;;;22.35;76.91;98209.63;5005643;28;20309;-65
2021/09/07 10:38:53;;;;;;;7.70;6.90;;;;;;;22.35;76.87;98207.06;5007196;28;20238;-66
2021/09/07 10:41:29;;;;;;;7.17;6.47;;;;;;;22.35;77.02;98213.03;5005193;28;20206;-66
2021/09/07 10:43:56;;;;;;;8.53;6.57;;;;;;;22.34;77.06;98203.59;5007389;28;20300;-66
2021/09/07 10:46:55;;;;;;;7.83;6.37;;;;;;;22.34;77.02;98206.16;5006892;28;20237;-66
2021/09/07 10:49:41;;;;;;;7.47;6.73;;;;;;;22.34;76.95;98205.28;5001449;28;20207;-66
2021/09/07 10:52:21;;;;;;;8.73;7.20;;;;;;;22.32;76.87;98200.09;5003234;28;20230;-64
2021/09/07 10:55:13;;;;;;;8.30;6.60;;;;;;;22.32;77.05;98202.66;5009199;28;20272;-66
2021/09/07 10:57:52;;;;;;;7.63;6.60;;;;;;;22.31;77.00;98202.63;5006741;28;20237;-66
2021/09/07 11:00:26;;;;;;;7.53;6.77;;;;;;;22.31;77.13;98197.50;5006841;28;20202;-66
2021/09/07 11:02:56;;;;;;;7.10;6.40;;;;;;;22.29;77.05;98194.88;5003431;28;20206;-66
2021/09/07 11:05:23;;;;;;;12.83;6.73;;;;;;;22.29;77.06;98192.31;5002966;28;20662;-65
2021/09/07 11:07:51;;;;;;;8.33;6.43;;;;;;;22.29;77.22;98189.75;5000541;28;20305;-66
2021/09/07 11:10:18;;;;;;;7.57;6.77;;;;;;;22.29;77.26;98186.34;5006482;28;20237;-66
2021/09/07 11:12:57;;;;;;;9.40;6.90;;;;;;;22.28;77.32;98193.13;5002275;28;20233;-66
2021/09/07 11:15:25;;;;;;;7.63;6.23;;;;;;;22.28;77.23;98190.59;5003427;28;20254;-66
2021/09/07 11:17:53;;;;;;;7.37;6.63;;;;;;;22.26;77.28;98187.06;4999751;28;20268;-66
2021/09/07 11:20:21;;;;;;;7.60;6.80;;;;;;;22.28;77.73;98188.03;5003490;28;20246;-65
2021/09/07 11:22:47;;;;;;;11.73;6.67;;;;;;;22.28;77.49;98177.78;5007488;28;20237;-66
2021/09/07 11:25:15;;;;;;;9.20;6.30;;;;;;;22.24;77.75;98172.50;4999258;28;20241;-66
2021/09/07 11:27:51;;;;;;;10.80;7.13;;;;;;;22.30;77.79;98180.41;5020437;28;20301;-66
2021/09/07 11:30:39;;;;;;;7.30;6.60;;;;;;;22.30;77.71;98176.16;5007992;28;20279;-66
2021/09/07 11:33:12;;;;;;;12.47;6.93;;;;;;;22.31;77.79;98180.44;5004189;28;20882;-66
2021/09/07 11:35:42;;;;;;;8.03;6.87;;;;;;;21.89;77.53;98101.19;5123199;22;20699;-71
2021/09/07 11:38:10;;;;;;;8.70;6.73;;;;;;;22.33;77.76;98172.81;4969815;28;20358;-70
2021/09/07 11:40:49;;;;;;;8.10;6.80;;;;;;;22.25;77.88;98154.63;5006566;28;20295;-70